Time,TemperatureF,DewpointF,PressureIn,WindDirection,WindDirectionDegrees,WindSpeedMPH,WindSpeedGustMPH,Humidity,HourlyPrecipIn,Conditions,Clouds,dailyrainin,SoftwareType,DateUTC
2013-02-22 00:00:00,16.9,14.5,30.03,North,11,2.0,4.0,90,0.00,,,0.00,Wunderground v.1.15,2013-02-22 06:00:00,
2013-02-22 00:10:00,16.8,14.4,30.03,North,1,3.0,3.0,90,0.00,,,0.00,Wunderground v.1.15,2013-02-22 06:10:00,
2013-02-22 00:15:00,16.7,14.0,30.03,NNW,327,2.0,3.0,89,0.00,,,0.00,Wunderground v.1.15,2013-02-22 06:15:00,
2013-02-22 00:25:00,16.5,14.1,30.03,NNW,330,2.0,3.0,90,0.00,,,0.00,Wunderground v.1.15,2013-02-22 06:25:00,
2013-02-22 00:35:00,16.5,13.8,30.03,NNW,340,2.0,3.0,89,0.00,,,0.00,Wunderground v.1.15,2013-02-22 06:35:00,
2013-02-22 00:45:00,16.3,13.6,30.04,WNW,283,2.0,2.0,89,0.00,,,0.00,Wunderground v.1.15,2013-02-22 06:45:00,
2013-02-22 00:55:00,16.2,13.5,30.04,NNE,13,2.0,3.0,89,0.00,,,0.00,Wunderground v.1.15,2013-02-22 06:55:00,
2013-02-22 01:05:00,16.2,13.8,30.04,North,4,1.0,10.0,90,0.00,,,0.00,Wunderground v.1.15,2013-02-22 07:05:00,
2013-02-22 01:15:00,16.2,13.5,30.04,WNW,299,1.0,10.0,89,0.00,,,0.00,Wunderground v.1.15,2013-02-22 07:15:00,
2013-02-22 01:25:00,16.0,13.3,30.03,North,349,1.0,3.0,89,0.00,,,0.00,Wunderground v.1.15,2013-02-22 07:25:00,
2013-02-22 01:35:00,15.9,13.2,30.03,North,358,2.0,10.0,89,0.00,,,0.00,Wunderground v.1.15,2013-02-22 07:35:00,
2013-02-22 01:45:00,15.7,13.0,30.03,NNE,27,2.0,10.0,89,0.00,,,0.00,Wunderground v.1.15,2013-02-22 07:45:00,
2013-02-22 01:55:00,15.6,12.9,30.03,WNW,301,2.0,10.0,89,0.00,,,0.00,Wunderground v.1.15,2013-02-22 07:55:00,
2013-02-22 02:00:00,15.6,12.9,30.03,West,274,2.0,2.0,89,0.00,,,0.00,Wunderground v.1.15,2013-02-22 08:00:00,
2013-02-22 02:05:00,15.6,12.9,30.03,NW,308,3.0,3.0,89,0.00,,,0.00,Wunderground v.1.15,2013-02-22 08:05:00,
2013-02-22 02:15:00,15.5,12.8,30.04,NW,320,2.0,10.0,89,0.00,,,0.00,Wunderground v.1.15,2013-02-22 08:15:00,
2013-02-22 02:25:00,15.5,12.8,30.04,NNE,33,2.0,10.0,89,0.00,,,0.00,Wunderground v.1.15,2013-02-22 08:25:00,
2013-02-22 02:35:00,15.5,12.8,30.04,NW,306,2.0,10.0,89,0.00,,,0.00,Wunderground v.1.15,2013-02-22 08:35:00,
2013-02-22 02:45:00,15.3,12.6,30.04,NW,310,2.0,4.0,89,0.00,,,0.00,Wunderground v.1.15,2013-02-22 08:45:00,
2013-02-22 02:55:00,15.2,12.5,30.04,WNW,287,2.0,10.0,89,0.00,,,0.00,Wunderground v.1.15,2013-02-22 08:55:00,
2013-02-22 03:00:00,15.0,12.3,30.04,NW,314,2.0,10.0,89,0.00,,,0.00,Wunderground v.1.15,2013-02-22 09:00:00,
2013-02-22 03:10:00,14.8,12.1,30.04,WNW,301,3.0,10.0,89,0.00,,,0.00,Wunderground v.1.15,2013-02-22 09:10:00,
2013-02-22 03:15:00,14.7,12.0,30.04,NW,308,4.0,10.0,89,0.00,,,0.00,Wunderground v.1.15,2013-02-22 09:15:00,
2013-02-22 03:25:00,14.6,11.9,30.04,NNW,344,3.0,10.0,89,0.00,,,0.00,Wunderground v.1.15,2013-02-22 09:25:00,
2013-02-22 03:35:00,14.5,11.9,30.04,NW,317,3.0,10.0,89,0.00,,,0.00,Wunderground v.1.15,2013-02-22 09:35:00,
2013-02-22 03:45:00,14.5,11.9,30.04,NW,324,3.0,10.0,89,0.00,,,0.00,Wunderground v.1.15,2013-02-22 09:45:00,
2013-02-22 03:55:00,14.4,11.8,30.04,NW,311,3.0,10.0,89,0.00,,,0.00,Wunderground v.1.15,2013-02-22 09:55:00,
2013-02-22 04:05:00,14.4,11.8,30.04,WNW,301,3.0,10.0,89,0.00,,,0.00,Wunderground v.1.15,2013-02-22 10:05:00,
2013-02-22 04:10:00,14.4,11.8,30.04,West,280,2.0,10.0,89,0.00,,,0.00,Wunderground v.1.15,2013-02-22 10:10:00,
2013-02-22 04:15:00,14.4,11.8,30.04,North,5,2.0,10.0,89,0.00,,,0.00,Wunderground v.1.15,2013-02-22 10:15:00,
2013-02-22 04:25:00,14.3,11.7,30.04,NW,305,3.0,10.0,89,0.00,,,0.00,Wunderground v.1.15,2013-02-22 10:25:00,
2013-02-22 04:35:00,14.3,11.7,30.04,WNW,301,1.0,10.0,89,0.00,,,0.00,Wunderground v.1.15,2013-02-22 10:35:00,
2013-02-22 04:45:00,14.3,11.7,30.04,NW,307,1.0,10.0,89,0.00,,,0.00,Wunderground v.1.15,2013-02-22 10:45:00,
2013-02-22 04:55:00,14.2,11.6,30.03,NNE,16,2.0,10.0,89,0.00,,,0.00,Wunderground v.1.15,2013-02-22 10:55:00,
2013-02-22 05:05:00,14.1,11.5,30.03,NE,34,2.0,4.0,89,0.00,,,0.00,Wunderground v.1.15,2013-02-22 11:05:00,
2013-02-22 05:15:00,14.2,11.6,30.03,NW,304,2.0,10.0,89,0.00,,,0.00,Wunderground v.1.15,2013-02-22 11:15:00,
2013-02-22 05:20:00,14.2,11.6,30.03,NNW,336,2.0,2.0,89,0.00,,,0.00,Wunderground v.1.15,2013-02-22 11:20:00,
2013-02-22 05:25:00,14.2,11.6,30.03,NNW,331,1.0,10.0,89,0.00,,,0.00,Wunderground v.1.15,2013-02-22 11:25:00,
2013-02-22 05:35:00,14.3,11.7,30.04,NW,320,2.0,4.0,89,0.00,,,0.00,Wunderground v.1.15,2013-02-22 11:35:00,
2013-02-22 05:45:00,14.3,11.7,30.04,NW,314,3.0,10.0,89,0.00,,,0.00,Wunderground v.1.15,2013-02-22 11:45:00,
2013-02-22 05:55:00,14.2,11.6,30.04,NW,326,3.0,4.0,89,0.00,,,0.00,Wunderground v.1.15,2013-02-22 11:55:00,
2013-02-22 06:00:00,14.2,11.6,30.04,NW,315,3.0,4.0,89,0.00,,,0.00,Wunderground v.1.15,2013-02-22 12:00:00,
2013-02-22 06:10:00,14.1,11.5,30.04,North,4,2.0,4.0,89,0.00,,,0.00,Wunderground v.1.15,2013-02-22 12:10:00,
2013-02-22 06:15:00,14.0,11.1,30.04,NW,308,3.0,4.0,88,0.00,,,0.00,Wunderground v.1.15,2013-02-22 12:15:00,
2013-02-22 06:20:00,13.9,11.0,30.04,WNW,297,3.0,5.0,88,0.00,,,0.00,Wunderground v.1.15,2013-02-22 12:20:00,
2013-02-22 06:30:00,13.7,10.8,30.05,WNW,287,3.0,3.0,88,0.00,,,0.00,Wunderground v.1.15,2013-02-22 12:30:00,
2013-02-22 06:35:00,13.7,10.8,30.05,NW,312,3.0,8.0,88,0.00,,,0.00,Wunderground v.1.15,2013-02-22 12:35:00,
2013-02-22 06:45:00,13.5,10.6,30.05,West,269,3.0,8.0,88,0.00,,,0.00,Wunderground v.1.15,2013-02-22 12:45:00,
2013-02-22 06:55:00,13.3,10.4,30.05,WNW,290,3.0,8.0,88,0.00,,,0.00,Wunderground v.1.15,2013-02-22 12:55:00,
2013-02-22 07:05:00,13.1,10.2,30.05,NW,315,2.0,8.0,88,0.00,,,0.00,Wunderground v.1.15,2013-02-22 13:05:00,
2013-02-22 07:15:00,13.0,10.1,30.05,NW,314,2.0,8.0,88,0.00,,,0.00,Wunderground v.1.15,2013-02-22 13:15:00,
2013-02-22 07:25:00,12.9,10.0,30.05,NW,312,1.0,8.0,88,0.00,,,0.00,Wunderground v.1.15,2013-02-22 13:25:00,
2013-02-22 07:30:00,12.8,9.9,30.06,WNW,282,1.0,8.0,88,0.00,,,0.00,Wunderground v.1.15,2013-02-22 13:30:00,
2013-02-22 07:40:00,12.7,9.8,30.06,NW,304,3.0,8.0,88,0.00,,,0.00,Wunderground v.1.15,2013-02-22 13:40:00,
2013-02-22 07:45:00,12.7,9.8,30.06,NW,316,3.0,8.0,88,0.00,,,0.00,Wunderground v.1.15,2013-02-22 13:45:00,
2013-02-22 07:55:00,12.7,9.8,30.06,WNW,302,3.0,8.0,88,0.00,,,0.00,Wunderground v.1.15,2013-02-22 13:55:00,
2013-02-22 08:05:00,12.7,9.8,30.06,NW,309,2.0,8.0,88,0.00,,,0.00,Wunderground v.1.15,2013-02-22 14:05:00,
2013-02-22 08:15:00,12.8,9.7,30.07,West,274,2.0,8.0,87,0.00,,,0.00,Wunderground v.1.15,2013-02-22 14:15:00,
2013-02-22 08:25:00,12.8,9.7,30.07,West,276,2.0,8.0,87,0.00,,,0.00,Wunderground v.1.15,2013-02-22 14:25:00,
2013-02-22 08:35:00,13.0,9.9,30.07,WNW,283,2.0,3.0,87,0.00,,,0.00,Wunderground v.1.15,2013-02-22 14:35:00,
2013-02-22 08:45:00,13.1,10.0,30.07,WNW,294,2.0,8.0,87,0.00,,,0.00,Wunderground v.1.15,2013-02-22 14:45:00,
2013-02-22 08:50:00,13.1,9.7,30.07,West,279,2.0,8.0,86,0.00,,,0.00,Wunderground v.1.15,2013-02-22 14:50:00,
2013-02-22 08:55:00,13.2,9.8,30.07,NW,308,3.0,8.0,86,0.00,,,0.00,Wunderground v.1.15,2013-02-22 14:55:00,
2013-02-22 09:05:00,13.6,10.2,30.08,WNW,301,2.0,8.0,86,0.00,,,0.00,Wunderground v.1.15,2013-02-22 15:05:00,
2013-02-22 09:15:00,14.2,10.8,30.07,WNW,299,3.0,8.0,86,0.00,,,0.00,Wunderground v.1.15,2013-02-22 15:15:00,
2013-02-22 09:25:00,14.5,11.1,30.08,NW,326,4.0,8.0,86,0.00,,,0.00,Wunderground v.1.15,2013-02-22 15:25:00,
2013-02-22 09:35:00,14.9,11.2,30.08,West,281,4.0,8.0,85,0.00,,,0.00,Wunderground v.1.15,2013-02-22 15:35:00,
2013-02-22 09:45:00,15.4,11.7,30.09,WNW,293,3.0,8.0,85,0.00,,,0.00,Wunderground v.1.15,2013-02-22 15:45:00,
2013-02-22 09:55:00,15.8,12.1,30.09,WNW,302,4.0,8.0,85,0.00,,,0.00,Wunderground v.1.15,2013-02-22 15:55:00,
2013-02-22 10:05:00,15.6,11.9,30.08,NW,304,6.0,8.0,85,0.00,,,0.00,Wunderground v.1.15,2013-02-22 16:05:00,
2013-02-22 10:15:00,15.9,12.2,30.09,NW,322,5.0,8.0,85,0.00,,,0.00,Wunderground v.1.15,2013-02-22 16:15:00,
2013-02-22 10:25:00,15.8,11.8,30.09,WNW,297,7.0,7.0,84,0.00,,,0.00,Wunderground v.1.15,2013-02-22 16:25:00,
2013-02-22 10:35:00,16.5,12.5,30.09,NW,307,5.0,8.0,84,0.00,,,0.00,Wunderground v.1.15,2013-02-22 16:35:00,
2013-02-22 10:45:00,16.6,12.6,30.09,NW,316,6.0,8.0,84,0.00,,,0.00,Wunderground v.1.15,2013-02-22 16:45:00,
2013-02-22 10:55:00,16.7,12.7,30.09,NW,309,6.0,8.0,84,0.00,,,0.00,Wunderground v.1.15,2013-02-22 16:55:00,
2013-02-22 11:00:00,17.3,13.3,30.09,WNW,295,4.0,4.0,84,0.00,,,0.00,Wunderground v.1.15,2013-02-22 17:00:00,
2013-02-22 11:05:00,17.6,13.6,30.10,WNW,283,3.0,6.0,84,0.00,,,0.00,Wunderground v.1.15,2013-02-22 17:05:00,
2013-02-22 11:15:00,17.5,13.2,30.10,WSW,253,6.0,8.0,83,0.00,,,0.00,Wunderground v.1.15,2013-02-22 17:15:00,
2013-02-22 11:25:00,18.1,13.8,30.10,NW,311,5.0,8.0,83,0.00,,,0.00,Wunderground v.1.15,2013-02-22 17:25:00,
2013-02-22 11:35:00,18.2,13.6,30.10,NW,309,6.0,8.0,82,0.00,,,0.00,Wunderground v.1.15,2013-02-22 17:35:00,
2013-02-22 11:45:00,18.7,14.1,30.11,NW,318,5.0,8.0,82,0.00,,,0.00,Wunderground v.1.15,2013-02-22 17:45:00,
2013-02-22 11:55:00,19.3,14.7,30.11,NNW,338,4.0,8.0,82,0.00,,,0.00,Wunderground v.1.15,2013-02-22 17:55:00,
2013-02-22 12:00:00,19.5,14.9,30.11,WNW,297,4.0,8.0,82,0.00,,,0.00,Wunderground v.1.15,2013-02-22 18:00:00,
2013-02-22 12:10:00,19.2,14.3,30.11,NW,309,5.0,5.0,81,0.00,,,0.00,Wunderground v.1.15,2013-02-22 18:10:00,
2013-02-22 12:15:00,19.5,14.6,30.11,NW,316,4.0,5.0,81,0.00,,,0.00,Wunderground v.1.15,2013-02-22 18:15:00,
2013-02-22 12:25:00,20.0,14.5,30.12,NW,321,4.0,6.0,79,0.00,,,0.00,Wunderground v.1.15,2013-02-22 18:25:00,
2013-02-22 12:35:00,20.2,14.7,30.12,NNE,27,5.0,5.0,79,0.00,,,0.00,Wunderground v.1.15,2013-02-22 18:35:00,
2013-02-22 12:45:00,20.0,14.5,30.11,NNW,344,5.0,5.0,79,0.00,,,0.00,Wunderground v.1.15,2013-02-22 18:45:00,
2013-02-22 12:55:00,20.9,15.1,30.11,NW,311,4.0,4.0,78,0.00,,,0.00,Wunderground v.1.15,2013-02-22 18:55:00,
2013-02-22 13:00:00,20.5,14.7,30.11,WNW,302,4.0,4.0,78,0.00,,,0.00,Wunderground v.1.15,2013-02-22 19:00:00,
2013-02-22 13:10:00,20.7,14.9,30.11,WNW,298,4.0,13.0,78,0.00,,,0.00,Wunderground v.1.15,2013-02-22 19:10:00,
2013-02-22 13:15:00,20.7,14.9,30.11,WNW,294,4.0,13.0,78,0.00,,,0.00,Wunderground v.1.15,2013-02-22 19:15:00,
2013-02-22 13:25:00,20.8,15.3,30.10,NW,315,4.0,13.0,79,0.00,,,0.00,Wunderground v.1.15,2013-02-22 19:25:00,
2013-02-22 13:35:00,20.4,14.6,30.10,West,277,5.0,13.0,78,0.00,,,0.00,Wunderground v.1.15,2013-02-22 19:35:00,
2013-02-22 13:45:00,19.9,14.4,30.10,NW,323,5.0,5.0,79,0.00,,,0.00,Wunderground v.1.15,2013-02-22 19:45:00,
2013-02-22 13:55:00,19.8,14.3,30.10,WNW,295,4.0,13.0,79,0.00,,,0.00,Wunderground v.1.15,2013-02-22 19:55:00,
2013-02-22 14:05:00,20.0,14.5,30.11,NW,304,4.0,6.0,79,0.00,,,0.00,Wunderground v.1.15,2013-02-22 20:05:00,
2013-02-22 14:15:00,20.6,14.8,30.11,NNW,343,4.0,13.0,78,0.00,,,0.00,Wunderground v.1.15,2013-02-22 20:15:00,
2013-02-22 14:25:00,20.8,15.0,30.10,WNW,295,4.0,13.0,78,0.00,,,0.00,Wunderground v.1.15,2013-02-22 20:25:00,
2013-02-22 14:35:00,21.1,15.0,30.11,NW,318,4.0,13.0,77,0.00,,,0.00,Wunderground v.1.15,2013-02-22 20:35:00,
2013-02-22 14:45:00,20.9,14.5,30.11,WNW,288,5.0,13.0,76,0.00,,,0.00,Wunderground v.1.15,2013-02-22 20:45:00,
2013-02-22 14:55:00,21.1,15.0,30.11,West,280,4.0,13.0,77,0.00,,,0.00,Wunderground v.1.15,2013-02-22 20:55:00,
2013-02-22 15:05:00,21.1,15.0,30.11,NW,325,4.0,13.0,77,0.00,,,0.00,Wunderground v.1.15,2013-02-22 21:05:00,
2013-02-22 15:15:00,21.3,15.2,30.11,WNW,298,4.0,6.0,77,0.00,,,0.00,Wunderground v.1.15,2013-02-22 21:15:00,
2013-02-22 15:20:00,21.3,15.2,30.11,NW,319,4.0,13.0,77,0.00,,,0.00,Wunderground v.1.15,2013-02-22 21:20:00,
2013-02-22 15:25:00,21.3,15.2,30.11,West,271,5.0,13.0,77,0.00,,,0.00,Wunderground v.1.15,2013-02-22 21:25:00,
2013-02-22 15:35:00,21.6,15.2,30.11,West,279,4.0,13.0,76,0.00,,,0.00,Wunderground v.1.15,2013-02-22 21:35:00,
2013-02-22 15:45:00,21.6,15.2,30.11,NW,308,4.0,6.0,76,0.00,,,0.00,Wunderground v.1.15,2013-02-22 21:45:00,
2013-02-22 15:55:00,21.8,15.1,30.11,West,274,4.0,13.0,75,0.00,,,0.00,Wunderground v.1.15,2013-02-22 21:55:00,
2013-02-22 16:05:00,21.9,15.2,30.10,WNW,295,4.0,13.0,75,0.00,,,0.00,Wunderground v.1.15,2013-02-22 22:05:00,
2013-02-22 16:15:00,22.0,15.6,30.10,NW,316,4.0,13.0,76,0.00,,,0.00,Wunderground v.1.15,2013-02-22 22:15:00,